Time;durP1;ratioP1;P1;durP2;ratioP2;P2;SDS_P1;SDS_P2;PMS_P1;PMS_P2;Temp;Humidity;BMP_temperature;BMP_pressure;BME280_temperature;BME280_humidity;BME280_pressure;Samples;Min_cycle;Max_cycle;Signal;HPM_P1;HPM_P2
2022/06/09 00:02:48;;;;;;;;;19.00;16.60;;;;;23.48;60.94;98058.50;6262809;27;96547;-70
2022/06/09 00:05:52;;;;;;;;;16.80;15.80;;;;;23.45;60.76;98059.97;6263204;27;97474;-69
2022/06/09 00:08:55;;;;;;;;;19.00;15.00;;;;;23.41;60.54;98056.22;6240520;27;96628;-70
2022/06/09 00:12:01;;;;;;;;;18.60;16.00;;;;;23.43;60.59;98066.91;6243929;27;97557;-69
2022/06/09 00:15:07;;;;;;;;;16.25;14.50;;;;;23.43;60.74;98064.16;6243637;27;97598;-70
2022/06/09 00:18:11;;;;;;;;;17.00;15.40;;;;;23.40;61.02;98062.06;6261783;27;96750;-70
2022/06/09 00:21:14;;;;;;;;;15.25;13.25;;;;;23.41;60.85;98047.97;6245146;27;96622;-71
2022/06/09 00:24:18;;;;;;;;;14.00;13.20;;;;;23.45;60.84;98051.72;6243654;27;97734;-69
2022/06/09 00:27:23;;;;;;;;;17.33;14.33;;;;;23.30;60.75;98035.69;6262325;27;97397;-69
2022/06/09 00:30:27;;;;;;;;;17.00;15.00;;;;;23.47;60.50;98074.19;6254708;27;96757;-69
2022/06/09 00:33:30;;;;;;;;;18.40;16.40;;;;;23.31;60.71;98082.09;6216980;28;97126;-69
2022/06/09 00:36:34;;;;;;;;;17.00;16.00;;;;;23.19;61.08;98103.97;6237442;27;99639;-69
2022/06/09 00:39:37;;;;;;;;;10.75;8.75;;;;;22.85;59.41;98101.16;6262049;27;96770;-70
2022/06/09 00:42:42;;;;;;;;;7.00;6.00;;;;;22.71;59.55;98116.97;6219848;27;96830;-72
2022/06/09 00:45:53;;;;;;;;;6.33;6.00;;;;;22.48;59.47;98100.53;6237894;27;98805;-70
2022/06/09 00:49:00;;;;;;;;;3.60;3.00;;;;;22.10;58.29;98106.84;6240248;27;98659;-73
2022/06/09 00:52:07;;;;;;;;;4.25;3.00;;;;;21.95;60.32;98077.88;6254957;27;96642;-72
2022/06/09 00:55:16;;;;;;;;;3.00;3.00;;;;;21.67;61.12;98027.00;6253652;27;99655;-73
2022/06/09 00:58:25;;;;;;;;;2.60;2.00;;;;;21.55;60.49;98047.59;6260175;27;96746;-73
2022/06/09 01:01:29;;;;;;;;;5.00;4.00;;;;;21.63;61.17;98021.34;6241500;27;96719;-71
2022/06/09 01:04:34;;;;;;;;;3.00;3.00;;;;;21.68;60.75;98010.25;6243280;27;98114;-73
2022/06/09 01:07:42;;;;;;;;;2.50;2.25;;;;;21.78;61.25;97992.69;6242246;27;96926;-72
2022/06/09 01:10:45;;;;;;;;;3.60;3.00;;;;;21.82;61.00;97983.53;6231272;27;96678;-71
2022/06/09 01:13:50;;;;;;;;;3.00;3.00;;;;;21.87;60.90;97979.81;6258528;27;96569;-70
2022/06/09 01:17:09;;;;;;;;;1.80;1.80;;;;;21.88;60.25;97985.00;6238752;27;96833;-71
2022/06/09 01:20:26;;;;;;;;;3.00;2.00;;;;;21.90;59.38;97998.38;6246505;27;97462;-70
2022/06/09 01:24:18;;;;;;;;;3.80;3.00;;;;;21.80;59.29;97983.00;6220456;27;99983;-72
2022/06/09 01:27:40;;;;;;;;;2.60;2.00;;;;;21.81;58.87;97994.81;6155097;28;98030;-72
2022/06/09 01:30:52;;;;;;;;;2.60;2.00;;;;;21.73;58.85;97990.09;6160330;28;97298;-72
2022/06/09 01:34:04;;;;;;;;;2.20;2.00;;;;;21.69;58.74;97989.94;6131518;28;98884;-72
2022/06/09 01:37:21;;;;;;;;;2.00;2.00;;;;;21.40;58.29;97979.44;6114484;28;97801;-70
2022/06/09 01:40:25;;;;;;;;;2.00;1.00;;;;;21.50;58.63;98008.53;6142439;28;100359;-70
2022/06/09 01:43:28;;;;;;;;;1.25;1.25;;;;;21.50;59.15;98017.56;6158761;28;97541;-71
2022/06/09 01:46:35;;;;;;;;;1.00;1.00;;;;;21.52;58.93;98017.25;6158289;28;96603;-70
2022/06/09 01:49:39;;;;;;;;;1.00;1.00;;;;;21.54;59.50;98010.34;6150701;28;97450;-71
2022/06/09 01:52:44;;;;;;;;;2.00;2.00;;;;;21.54;59.26;97990.31;6131542;28;97801;-72
2022/06/09 01:55:51;;;;;;;;;1.00;1.00;;;;;21.56;59.39;97991.63;6137463;28;97220;-70
2022/06/09 01:59:00;;;;;;;;;3.00;3.00;;;;;21.55;58.69;97978.25;6228501;27;98530;-72
2022/06/09 02:02:19;;;;;;;;;2.00;2.00;;;;;21.53;58.83;97984.03;6259520;27;97442;-70
2022/06/09 02:05:26;;;;;;;;;3.00;3.00;;;;;21.40;58.81;97960.25;6237746;27;98336;-69
2022/06/09 02:08:31;;;;;;;;;1.40;1.40;;;;;21.56;58.67;97966.13;6261986;27;96603;-71
2022/06/09 02:11:34;;;;;;;;;2.00;2.00;;;;;21.50;59.20;97949.00;6248465;27;98677;-69
2022/06/09 02:14:40;;;;;;;;;2.00;2.00;;;;;21.57;59.73;97954.03;6257893;27;96783;-72
2022/06/09 02:17:46;;;;;;;;;3.20;3.00;;;;;21.51;59.56;97961.59;6230509;27;96789;-71
2022/06/09 02:20:55;;;;;;;;;3.00;3.00;;;;;21.43;59.14;97956.88;6253628;27;97795;-71
2022/06/09 02:23:58;;;;;;;;;3.00;3.00;;;;;21.41;59.63;97961.84;6260845;27;96491;-71
2022/06/09 02:27:02;;;;;;;;;3.00;3.00;;;;;21.43;59.76;97972.50;6257668;27;97525;-72
2022/06/09 02:30:07;;;;;;;;;5.00;3.00;;;;;21.43;59.83;97970.59;6241126;27;97034;-69
2022/06/09 02:33:32;;;;;;;;;4.00;4.00;;;;;21.42;59.33;97974.44;6232039;28;97025;-72
2022/06/09 02:36:35;;;;;;;;;2.60;2.60;;;;;21.40;59.48;97960.25;6256133;27;96469;-70
2022/06/09 02:39:38;;;;;;;;;3.00;3.00;;;;;21.47;60.06;97963.34;6236955;27;98091;-69
2022/06/09 02:42:42;;;;;;;;;4.40;4.00;;;;;21.48;60.41;97964.16;6240957;27;96480;-69
2022/06/09 02:45:45;;;;;;;;;4.60;4.00;;;;;21.50;60.25;97970.94;6259726;27;97428;-70
2022/06/09 02:48:50;;;;;;;;;6.00;5.00;;;;;21.52;60.10;97976.91;6240480;27;96996;-71
2022/06/09 02:51:54;;;;;;;;;4.00;4.00;;;;;21.53;60.19;97981.28;6243631;27;96944;-71
2022/06/09 02:54:57;;;;;;;;;5.00;4.00;;;;;21.55;60.31;97979.03;6256609;27;97294;-71
2022/06/09 02:58:02;;;;;;;;;5.00;5.00;;;;;21.42;60.15;97958.00;6229963;27;97092;-71
2022/06/09 03:01:05;;;;;;;;;7.60;6.00;;;;;21.59;60.27;97985.53;6243198;27;96782;-70
2022/06/09 03:04:10;;;;;;;;;6.25;5.25;;;;;21.65;60.16;97994.41;6261811;27;97665;-72
2022/06/09 03:07:14;;;;;;;;;4.60;4.00;;;;;21.71;59.84;97987.66;6246345;27;99174;-69
2022/06/09 03:10:17;;;;;;;;;7.40;6.80;;;;;21.75;60.44;97987.81;6240563;27;99946;-70
2022/06/09 03:13:21;;;;;;;;;5.40;5.40;;;;;21.80;60.08;97988.50;6247141;27;96919;-72
2022/06/09 03:16:24;;;;;;;;;6.00;4.60;;;;;21.84;59.87;97980.47;6261713;27;96548;-70
2022/06/09 03:19:29;;;;;;;;;7.80;6.00;;;;;21.74;59.76;97981.56;6264372;27;99332;-71
2022/06/09 03:22:33;;;;;;;;;6.00;5.00;;;;;21.82;60.10;97991.75;6256752;27;96707;-69
2022/06/09 03:25:37;;;;;;;;;6.00;5.00;;;;;21.81;59.92;97983.81;6257207;27;97441;-69
2022/06/09 03:28:41;;;;;;;;;6.00;5.00;;;;;21.62;59.65;97964.88;6245365;27;98229;-71
2022/06/09 03:31:44;;;;;;;;;6.00;6.00;;;;;21.85;59.92;97982.88;6263322;27;96460;-71
2022/06/09 03:34:49;;;;;;;;;6.00;5.00;;;;;21.89;60.19;97983.06;6258179;27;96671;-70
2022/06/09 03:37:53;;;;;;;;;5.00;5.00;;;;;21.89;60.50;97985.81;6261379;27;97831;-71
2022/06/09 03:40:56;;;;;;;;;5.80;5.00;;;;;21.93;60.11;97986.78;6258877;27;96779;-70
2022/06/09 03:43:59;;;;;;;;;5.80;5.00;;;;;21.82;60.32;97955.28;6261523;27;97446;-70
2022/06/09 03:47:03;;;;;;;;;7.60;7.00;;;;;21.97;59.98;97977.63;6239765;27;97454;-71
2022/06/09 03:50:14;;;;;;;;;6.00;5.00;;;;;22.03;60.14;97973.63;6244767;27;96779;-72
2022/06/09 03:53:18;;;;;;;;;6.00;6.00;;;;;22.05;59.76;97970.53;6245485;27;97553;-71
2022/06/09 03:56:23;;;;;;;;;7.00;6.00;;;;;21.75;59.80;97935.69;6257388;27;98162;-72
2022/06/09 03:59:26;;;;;;;;;6.50;5.50;;;;;22.06;59.59;97983.16;6257504;27;96725;-69
2022/06/09 04:02:29;;;;;;;;;6.00;6.00;;;;;22.00;59.72;97978.94;6254122;27;96747;-72
2022/06/09 04:05:34;;;;;;;;;5.00;5.00;;;;;22.06;59.39;97985.91;6255485;27;97662;-71
2022/06/09 04:08:38;;;;;;;;;5.00;5.00;;;;;22.11;59.54;97980.25;6235524;27;98703;-72
2022/06/09 04:11:42;;;;;;;;;5.00;5.00;;;;;22.21;59.67;97976.41;6246199;27;98976;-71
2022/06/09 04:14:47;;;;;;;;;6.00;5.25;;;;;22.30;59.31;97975.31;6238436;27;97626;-72
2022/06/09 04:17:51;;;;;;;;;8.00;7.00;;;;;22.38;59.32;97985.47;6251722;27;97302;-69
2022/06/09 04:20:57;;;;;;;;;7.00;6.00;;;;;22.44;59.27;97986.94;6251881;27;97635;-71
2022/06/09 04:24:00;;;;;;;;;7.50;7.00;;;;;22.42;59.09;97977.44;6234592;27;97886;-73
2022/06/09 04:27:05;;;;;;;;;7.00;6.00;;;;;22.49;59.01;97983.25;6256936;27;97604;-71
2022/06/09 04:30:10;;;;;;;;;14.00;11.40;;;;;22.51;59.55;97983.75;6223884;27;97810;-73
2022/06/09 04:33:13;;;;;;;;;10.00;10.00;;;;;22.51;59.14;97982.94;6243951;27;96409;-71
2022/06/09 04:36:20;;;;;;;;;9.00;8.60;;;;;22.53;59.18;97978.72;6240668;27;97417;-69
2022/06/09 04:39:23;;;;;;;;;10.00;9.00;;;;;22.54;59.41;97977.59;6259593;27;96814;-71
2022/06/09 04:42:26;;;;;;;;;10.75;8.00;;;;;22.44;58.93;97964.97;6245752;27;97649;-73
2022/06/09 04:45:30;;;;;;;;;7.00;6.00;;;;;22.43;59.50;97968.84;6261326;27;97461;-72
2022/06/09 04:48:38;;;;;;;;;9.00;8.00;;;;;22.51;59.32;97977.44;6239460;27;97093;-72
2022/06/09 04:51:42;;;;;;;;;8.00;7.00;;;;;22.47;59.08;97980.03;6237255;27;97487;-70
2022/06/09 04:54:46;;;;;;;;;7.00;6.00;;;;;22.30;59.40;97988.22;6241932;27;97742;-69
2022/06/09 04:57:49;;;;;;;;;5.00;5.00;;;;;22.17;59.49;97984.47;6260879;27;97462;-71
2022/06/09 05:00:53;;;;;;;;;7.25;7.00;;;;;22.25;59.79;97980.13;6254975;27;96935;-70
2022/06/09 05:03:57;;;;;;;;;8.00;6.60;;;;;22.37;60.15;97980.34;6238750;27;97859;-69
2022/06/09 05:07:03;;;;;;;;;11.00;10.00;;;;;22.47;59.85;97982.78;6255792;27;97045;-69
2022/06/09 05:10:07;;;;;;;;;9.40;9.00;;;;;22.48;59.51;97982.44;6257386;27;96637;-71
2022/06/09 05:13:11;;;;;;;;;9.80;8.80;;;;;22.56;59.60;97980.84;6259642;27;97608;-70
2022/06/09 05:16:15;;;;;;;;;8.00;7.00;;;;;22.64;59.86;97993.78;6215172;27;97733;-71
2022/06/09 05:19:19;;;;;;;;;10.20;8.80;;;;;22.68;59.67;97989.25;6240886;27;97751;-67
2022/06/09 05:22:23;;;;;;;;;8.00;8.00;;;;;22.76;59.63;97987.69;6252131;27;97572;-69
2022/06/09 05:25:27;;;;;;;;;8.80;7.80;;;;;22.74;59.54;97984.44;6237591;27;97677;-70
2022/06/09 05:28:32;;;;;;;;;9.00;7.00;;;;;22.86;59.37;97996.41;6254422;27;96669;-69
2022/06/09 05:31:35;;;;;;;;;9.00;8.00;;;;;22.92;58.68;97993.50;6235212;27;97899;-70
2022/06/09 05:34:39;;;;;;;;;9.00;8.00;;;;;22.98;58.39;97997.69;6256834;27;96689;-69
2022/06/09 05:47:46;;;;;;;;;14.00;12.60;;;;;23.14;58.33;98007.06;6257476;27;97997;-65
2022/06/09 05:50:49;;;;;;;;;13.40;12.40;;;;;23.16;58.54;97999.31;6238586;27;97119;-67
2022/06/09 05:53:54;;;;;;;;;12.00;11.00;;;;;23.14;58.53;98005.13;6255360;27;96560;-66
2022/06/09 05:56:58;;;;;;;;;14.00;13.00;;;;;23.23;58.16;97997.69;6245531;27;97491;-69
2022/06/09 06:00:03;;;;;;;;;16.80;13.20;;;;;23.26;58.39;97997.00;6225166;27;96866;-66
2022/06/09 06:03:16;;;;;;;;;16.20;15.00;;;;;23.27;58.46;98004.13;6260498;27;97775;-68
2022/06/09 06:06:35;;;;;;;;;21.50;17.75;;;;;23.31;58.71;98013.34;6240790;27;96702;-68
2022/06/09 06:09:46;;;;;;;;;23.60;19.20;;;;;23.31;58.75;98013.34;6245510;27;96836;-68
2022/06/09 06:12:50;;;;;;;;;25.00;21.00;;;;;23.23;58.98;98005.13;6229196;27;96674;-67
2022/06/09 06:15:53;;;;;;;;;25.00;21.00;;;;;23.29;59.28;98006.56;6261127;27;97492;-71
2022/06/09 06:19:07;;;;;;;;;22.60;20.00;;;;;23.31;59.21;98010.59;6260002;27;97459;-68
2022/06/09 06:22:11;;;;;;;;;23.80;20.00;;;;;23.38;59.28;98017.56;6260978;27;96607;-69
2022/06/09 06:25:16;;;;;;;;;24.00;21.00;;;;;23.27;59.76;98020.63;6242279;27;97927;-69
2022/06/09 06:28:20;;;;;;;;;23.00;19.75;;;;;23.24;59.58;98020.50;6259366;27;96685;-70
2022/06/09 06:31:27;;;;;;;;;25.20;20.00;;;;;23.36;59.93;98017.09;6242897;27;98526;-69
2022/06/09 06:34:30;;;;;;;;;27.40;21.40;;;;;23.44;59.58;98010.75;6226647;27;97027;-68
2022/06/09 06:37:33;;;;;;;;;33.00;24.00;;;;;23.52;59.63;98010.75;6242396;27;96649;-68
2022/06/09 06:40:39;;;;;;;;;30.20;22.00;;;;;23.63;60.04;98013.97;6243781;27;97402;-67
2022/06/09 06:43:43;;;;;;;;;29.20;22.60;;;;;23.62;59.45;97998.59;6242492;27;100245;-71
2022/06/09 06:46:46;;;;;;;;;34.50;26.50;;;;;23.74;59.40;98018.81;6261575;27;96477;-71
2022/06/09 06:49:50;;;;;;;;;29.20;24.60;;;;;23.90;59.19;98016.31;6258446;27;96655;-71
2022/06/09 06:52:53;;;;;;;;;33.80;26.80;;;;;24.04;59.31;98021.63;6239239;27;98205;-71
2022/06/09 06:55:58;;;;;;;;;34.00;26.00;;;;;24.15;59.15;98017.34;6257337;27;98073;-70
2022/06/09 06:59:02;;;;;;;;;38.00;30.00;;;;;24.21;59.07;98012.47;6256927;27;96818;-70
2022/06/09 07:02:06;;;;;;;;;38.60;30.00;;;;;24.28;59.07;98018.28;6244753;27;98863;-67
2022/06/09 07:05:09;;;;;;;;;35.80;30.00;;;;;24.25;58.95;98011.47;6258416;27;96755;-69
2022/06/09 07:08:15;;;;;;;;;35.00;29.00;;;;;24.42;59.22;98024.38;6260327;27;97481;-70
2022/06/09 07:11:20;;;;;;;;;36.60;29.00;;;;;24.68;59.05;98024.22;6249323;27;97276;-70
2022/06/09 07:14:24;;;;;;;;;34.00;27.50;;;;;24.78;58.30;98023.78;6262199;27;97246;-71
2022/06/09 07:17:27;;;;;;;;;36.60;28.00;;;;;25.02;57.71;98029.50;6237092;27;97038;-71
2022/06/09 07:20:31;;;;;;;;;35.80;29.20;;;;;25.20;57.76;98021.88;6228447;27;98388;-67
2022/06/09 07:23:36;;;;;;;;;37.00;28.00;;;;;25.50;57.52;98014.31;6254049;27;97429;-69
2022/06/09 07:26:40;;;;;;;;;35.25;28.00;;;;;25.66;56.01;98018.84;6258958;27;97409;-70
2022/06/09 07:29:44;;;;;;;;;29.60;25.60;;;;;26.01;55.91;98008.22;6259236;27;97141;-72
2022/06/09 07:32:48;;;;;;;;;31.00;25.60;;;;;26.42;55.09;98010.00;6242847;27;100220;-72
2022/06/09 07:35:54;;;;;;;;;32.00;24.25;;;;;26.39;53.65;97977.50;6255629;27;97454;-71
2022/06/09 07:38:57;;;;;;;;;31.20;25.40;;;;;26.64;52.51;98015.03;6253094;27;97441;-72
2022/06/09 07:42:02;;;;;;;;;30.50;26.00;;;;;26.81;52.20;98016.72;6237672;27;97507;-72
2022/06/09 07:45:08;;;;;;;;;29.00;23.20;;;;;27.02;52.52;98011.06;6261684;27;97521;-72
2022/06/09 07:48:12;;;;;;;;;30.00;24.00;;;;;27.24;52.41;98012.47;6239518;27;97032;-72
2022/06/09 07:51:36;;;;;;;;;26.80;23.20;;;;;27.40;51.99;98003.06;6233546;27;96801;-72
2022/06/09 07:54:42;;;;;;;;;28.00;24.00;;;;;27.51;51.91;97998.66;6251639;27;96704;-72
2022/06/09 07:57:47;;;;;;;;;29.00;26.00;;;;;27.59;50.58;98007.97;6239780;27;98171;-68
2022/06/09 08:00:51;;;;;;;;;27.00;23.50;;;;;27.63;50.91;98006.09;6261385;27;97046;-71
2022/06/09 08:03:54;;;;;;;;;25.00;22.00;;;;;27.66;50.41;98008.16;6254160;27;96914;-71
2022/06/09 08:06:58;;;;;;;;;26.40;23.00;;;;;27.72;50.29;98019.78;6260537;27;96703;-70
2022/06/09 08:10:01;;;;;;;;;27.20;25.40;;;;;27.68;49.39;98028.00;6261973;27;97436;-71
2022/06/09 08:13:06;;;;;;;;;28.50;23.00;;;;;27.72;49.68;98022.53;6261441;27;97442;-69
2022/06/09 08:16:11;;;;;;;;;25.20;24.20;;;;;27.69;49.68;98026.84;6223233;27;97693;-68
2022/06/09 08:19:14;;;;;;;;;27.67;25.67;;;;;27.71;49.89;98018.19;6251457;27;97215;-69
2022/06/09 08:22:18;;;;;;;;;25.33;23.33;;;;;27.80;50.21;98025.16;6262429;27;97600;-69
2022/06/09 08:25:22;;;;;;;;;30.80;26.60;;;;;27.84;49.56;98037.13;6255780;27;97428;-67
2022/06/09 08:28:27;;;;;;;;;29.33;23.33;;;;;27.78;49.54;98029.44;6218890;28;97872;-68
2022/06/09 08:31:30;;;;;;;;;25.20;22.00;;;;;27.77;49.41;98025.84;6239357;27;96941;-68
2022/06/09 08:34:34;;;;;;;;;25.20;21.20;;;;;27.72;49.05;98031.66;6225236;27;97998;-68
2022/06/09 08:37:38;;;;;;;;;28.00;24.00;;;;;27.63;49.67;98041.28;6242313;27;96674;-69
2022/06/09 08:40:53;;;;;;;;;30.25;25.00;;;;;27.56;49.51;98048.22;6232661;27;100099;-69
2022/06/09 08:44:08;;;;;;;;;23.60;22.00;;;;;27.46;49.90;98037.66;6238638;27;97855;-68
2022/06/09 08:47:24;;;;;;;;;24.75;20.50;;;;;27.39;50.62;98034.69;6258272;27;97554;-68
2022/06/09 08:50:40;;;;;;;;;26.00;23.00;;;;;27.42;50.09;98042.25;6248132;27;97422;-68
2022/06/09 08:53:49;;;;;;;;;25.20;22.20;;;;;27.45;50.22;98036.03;6255928;27;97503;-69
2022/06/09 08:56:54;;;;;;;;;26.40;23.00;;;;;27.34;49.97;98025.81;6240418;27;98260;-68
2022/06/09 08:59:59;;;;;;;;;30.00;25.00;;;;;27.39;49.58;98054.06;6235130;27;97255;-68
2022/06/09 09:03:10;;;;;;;;;28.60;25.00;;;;;27.39;50.44;98047.72;6260588;27;96732;-68
2022/06/09 09:06:24;;;;;;;;;29.40;25.60;;;;;27.34;50.45;98036.88;6239152;27;97167;-68
2022/06/09 09:09:31;;;;;;;;;30.50;25.50;;;;;27.36;50.45;98052.00;6246737;27;96800;-67
2022/06/09 09:12:43;;;;;;;;;35.00;26.80;;;;;27.26;50.30;98046.16;6256980;27;97146;-68
2022/06/09 09:15:53;;;;;;;;;33.60;27.60;;;;;27.19;50.55;98057.00;6233093;27;97490;-68
2022/06/09 09:19:06;;;;;;;;;30.60;24.60;;;;;27.10;51.43;98048.84;6220887;27;99556;-68
2022/06/09 09:22:18;;;;;;;;;35.60;27.00;;;;;27.13;50.66;98051.72;6247306;27;97486;-68
2022/06/09 09:25:26;;;;;;;;;32.40;28.00;;;;;27.17;51.11;98049.84;6251644;27;97454;-68
2022/06/09 09:28:32;;;;;;;;;36.00;29.00;;;;;27.17;50.89;98056.56;6256914;27;96663;-67
2022/06/09 09:31:50;;;;;;;;;36.25;30.00;;;;;27.02;51.16;98053.38;6248805;27;97603;-68
2022/06/09 09:34:56;;;;;;;;;34.20;28.20;;;;;26.99;51.80;98056.00;6254570;27;96680;-67
2022/06/09 09:38:01;;;;;;;;;29.20;26.20;;;;;26.89;51.59;98057.31;6259092;27;96640;-67
2022/06/09 09:41:05;;;;;;;;;30.40;28.00;;;;;26.83;51.64;98055.91;6221726;27;97281;-67
2022/06/09 09:44:17;;;;;;;;;35.40;29.00;;;;;26.89;51.88;98057.31;6254158;27;98071;-67
2022/06/09 09:47:28;;;;;;;;;32.20;26.60;;;;;26.97;51.30;98059.16;6252594;27;96608;-67
2022/06/09 09:50:41;;;;;;;;;35.40;29.40;;;;;27.23;52.35;98050.41;6256379;27;96716;-65
2022/06/09 09:53:55;;;;;;;;;35.00;30.00;;;;;27.58;51.48;98045.13;6253310;27;96656;-65
2022/06/09 09:57:07;;;;;;;;;39.00;31.00;;;;;27.92;50.60;98038.94;6250819;27;97448;-66
2022/06/09 10:00:26;;;;;;;;;37.60;29.60;;;;;28.31;50.46;98044.69;6254475;27;96488;-68
2022/06/09 10:11:01;;;;;;;;;32.60;29.00;;;;;29.10;48.51;98037.03;6259356;27;96684;-70
2022/06/09 10:14:34;;;;;;;;;36.00;30.00;;;;;29.27;47.99;98033.84;6254967;27;97411;-71
2022/06/09 10:18:02;;;;;;;;;37.40;30.00;;;;;29.44;47.27;98038.19;6259569;27;97870;-70
2022/06/09 10:21:25;;;;;;;;;42.20;33.20;;;;;29.47;46.04;98029.13;6245185;27;97087;-70
2022/06/09 10:24:43;;;;;;;;;40.75;32.00;;;;;29.69;46.85;98037.50;6258267;27;96840;-69
2022/06/09 10:27:58;;;;;;;;;36.00;29.80;;;;;30.46;45.93;98025.38;6254708;27;97209;-70
2022/06/09 10:31:09;;;;;;;;;38.00;30.20;;;;;31.04;45.01;98041.75;6234285;27;98238;-70
2022/06/09 10:34:24;;;;;;;;;34.60;30.00;;;;;31.21;43.71;98028.09;6234585;27;96758;-71
2022/06/09 10:37:41;;;;;;;;;35.60;30.00;;;;;31.59;43.20;98035.34;6248318;27;96661;-68
2022/06/09 10:40:48;;;;;;;;;38.00;31.00;;;;;32.07;42.00;98027.88;6261668;27;97487;-69
2022/06/09 10:44:02;;;;;;;;;34.25;29.00;;;;;32.44;41.92;98024.25;6256329;27;97864;-68
2022/06/09 10:57:53;;;;;;;;;29.00;27.00;;;;;33.49;39.31;98012.91;6252853;27;98206;-67
2022/06/09 11:00:57;;;;;;;;;32.00;27.00;;;;;33.74;38.17;98015.81;6232011;28;97669;-66
2022/06/09 11:04:02;;;;;;;;;28.20;25.00;;;;;34.06;38.72;98027.06;6223276;28;97577;-70
2022/06/09 11:07:33;;;;;;;;;32.60;29.20;;;;;34.32;37.39;98011.91;6235202;28;96877;-69
2022/06/09 11:10:54;;;;;;;;;28.00;25.00;;;;;34.45;36.43;98015.13;6222621;28;98056;-64
2022/06/09 11:14:07;;;;;;;;;28.40;24.40;;;;;34.81;37.24;98010.28;6221207;28;97364;-68
2022/06/09 11:17:34;;;;;;;;;32.00;25.60;;;;;34.74;35.07;98011.91;6224822;28;97264;-67
2022/06/09 11:20:56;;;;;;;;;31.20;25.00;;;;;34.41;36.26;97997.50;6221832;28;96650;-67
2022/06/09 11:24:16;;;;;;;;;31.00;28.00;;;;;34.62;36.30;98003.88;6219410;28;98078;-66
2022/06/09 11:27:35;;;;;;;;;26.67;24.00;;;;;34.81;36.03;98013.06;6223526;27;96702;-69
2022/06/09 11:30:59;;;;;;;;;25.60;25.00;;;;;35.06;35.78;97997.81;6214636;28;97792;-69
2022/06/09 11:34:20;;;;;;;;;28.60;24.00;;;;;35.11;33.75;98000.19;6220407;28;97478;-68
2022/06/09 11:37:42;;;;;;;;;26.40;22.60;;;;;35.32;34.75;97987.34;6219595;28;96711;-68
2022/06/09 11:40:52;;;;;;;;;25.00;23.00;;;;;35.44;33.43;97998.88;6217972;28;97312;-68
2022/06/09 11:44:18;;;;;;;;;27.20;23.60;;;;;35.20;33.52;97997.78;6220453;28;97362;-71
2022/06/09 11:47:27;;;;;;;;;28.60;24.60;;;;;34.73;33.72;97993.50;6215327;28;97380;-70
2022/06/09 11:50:35;;;;;;;;;25.00;23.00;;;;;34.67;34.90;97995.13;6220130;28;97189;-69
2022/06/09 11:53:44;;;;;;;;;25.00;22.25;;;;;34.79;34.26;97974.31;6222175;28;97434;-69
2022/06/09 11:56:48;;;;;;;;;25.00;24.00;;;;;34.97;34.70;97983.44;6215916;28;97487;-70
2022/06/09 12:00:02;;;;;;;;;28.40;24.20;;;;;34.46;34.04;97975.50;6251241;27;97472;-71
2022/06/09 12:03:36;;;;;;;;;29.00;25.00;;;;;34.30;34.57;97964.75;6242505;27;98058;-68
2022/06/09 12:07:10;;;;;;;;;25.00;22.00;;;;;34.33;35.93;97955.56;6238419;27;97123;-68
2022/06/09 12:10:35;;;;;;;;;25.33;23.33;;;;;34.25;35.48;97944.78;6200117;27;97960;-68
2022/06/09 12:13:56;;;;;;;;;30.00;25.00;;;;;34.28;35.25;97935.56;6217369;27;97619;-67
2022/06/09 12:17:10;;;;;;;;;29.00;25.00;;;;;34.43;35.04;97922.34;6223529;27;97876;-67
2022/06/09 12:20:29;;;;;;;;;26.50;24.75;;;;;34.57;34.74;97920.31;6238899;27;97354;-67
2022/06/09 12:23:36;;;;;;;;;28.75;25.75;;;;;34.73;34.61;97917.13;6248552;27;96864;-67
2022/06/09 12:26:50;;;;;;;;;29.33;25.00;;;;;35.00;34.92;97925.81;6221278;27;97213;-68
2022/06/09 12:30:27;;;;;;;;;31.60;25.40;;;;;35.35;34.20;97941.69;6236965;27;97580;-67
2022/06/09 12:33:34;;;;;;;;;30.40;27.00;;;;;35.52;32.09;97949.19;6236657;27;98036;-67
2022/06/09 12:36:42;;;;;;;;;34.00;30.00;;;;;35.46;32.85;97954.44;6242325;27;97435;-68
2022/06/09 12:39:51;;;;;;;;;30.20;28.20;;;;;35.50;32.77;97955.22;6230886;27;97321;-67
2022/06/09 12:42:57;;;;;;;;;36.60;30.00;;;;;35.51;31.37;97964.41;6219435;27;98396;-68
2022/06/09 12:46:21;;;;;;;;;32.25;28.25;;;;;35.57;32.85;97966.38;6231112;27;97725;-68
2022/06/09 12:49:30;;;;;;;;;31.50;28.00;;;;;35.71;32.70;97959.91;6242069;27;96682;-68
2022/06/09 12:52:40;;;;;;;;;31.40;27.40;;;;;35.88;32.15;97955.38;6242764;27;96764;-70
2022/06/09 12:55:54;;;;;;;;;32.50;27.75;;;;;35.87;32.19;97922.94;6256003;27;96694;-70
2022/06/09 12:58:58;;;;;;;;;34.00;29.60;;;;;35.90;30.92;97925.72;6242473;27;97542;-67
2022/06/09 13:02:04;;;;;;;;;34.40;29.40;;;;;35.80;31.11;97942.63;6245207;27;98859;-68
2022/06/09 13:05:21;;;;;;;;;28.33;26.00;;;;;35.63;31.96;97938.69;6243923;27;96910;-69
2022/06/09 13:08:27;;;;;;;;;25.00;23.40;;;;;35.65;32.40;97927.88;6242771;27;97413;-68
2022/06/09 13:15:03;;;;;;;;;24.60;22.00;;;;;35.89;31.38;97926.13;6230681;27;96722;-68
2022/06/09 13:18:17;;;;;;;;;28.00;24.00;;;;;35.81;31.28;97939.41;6237091;27;97719;-67
2022/06/09 13:21:23;;;;;;;;;21.40;19.40;;;;;35.81;29.96;97950.63;6245546;27;97127;-68
2022/06/09 13:24:34;;;;;;;;;21.00;19.00;;;;;35.98;30.22;97971.34;6245041;27;96665;-69
2022/06/09 13:27:41;;;;;;;;;30.00;24.00;;;;;36.13;30.46;97974.81;6250984;27;97261;-69
2022/06/09 13:30:51;;;;;;;;;23.60;21.00;;;;;36.19;28.90;97962.78;6226123;27;98002;-69
2022/06/09 13:33:58;;;;;;;;;19.00;18.00;;;;;36.08;28.93;97947.22;6248486;27;96725;-69
2022/06/09 13:37:12;;;;;;;;;23.40;20.00;;;;;35.66;28.74;97929.50;6253852;27;97531;-70
2022/06/09 13:40:20;;;;;;;;;21.50;20.00;;;;;35.36;30.75;97929.25;6243134;27;97785;-70
2022/06/09 13:43:30;;;;;;;;;20.00;19.00;;;;;34.86;30.27;97931.47;6249106;27;96607;-69
2022/06/09 13:46:37;;;;;;;;;22.20;19.60;;;;;34.31;30.99;97926.34;6219916;27;98366;-72
2022/06/09 13:49:43;;;;;;;;;21.00;19.00;;;;;33.74;31.91;97936.72;6244732;27;98318;-72
2022/06/09 13:52:50;;;;;;;;;22.00;20.60;;;;;33.18;33.46;97951.34;6231957;27;97726;-71
2022/06/09 13:55:54;;;;;;;;;23.00;21.00;;;;;32.71;35.19;97957.88;6245875;27;98234;-70
2022/06/09 13:58:58;;;;;;;;;24.25;23.25;;;;;32.33;36.57;97968.38;6248949;27;97173;-70
2022/06/09 14:02:02;;;;;;;;;25.60;23.00;;;;;31.95;37.52;97972.41;6227153;27;99615;-70
2022/06/09 14:05:08;;;;;;;;;27.50;23.00;;;;;31.61;38.27;97991.19;6245593;27;96694;-72
2022/06/09 14:08:14;;;;;;;;;26.00;23.75;;;;;31.22;39.41;97987.13;6240082;27;96601;-70
2022/06/09 14:11:22;;;;;;;;;24.00;22.20;;;;;30.73;40.94;97974.16;6248688;27;96709;-70
2022/06/09 14:14:26;;;;;;;;;26.00;23.00;;;;;30.54;41.53;97988.19;6221871;27;98389;-68
2022/06/09 14:17:29;;;;;;;;;25.00;23.00;;;;;30.24;42.49;98012.28;6246736;27;97472;-71
2022/06/09 14:20:35;;;;;;;;;25.50;24.00;;;;;29.99;42.62;98007.13;6232181;27;98063;-68
2022/06/09 14:23:40;;;;;;;;;24.00;21.00;;;;;29.85;43.23;98003.25;6245910;27;97490;-71
2022/06/09 14:26:45;;;;;;;;;28.00;23.00;;;;;29.60;43.47;97989.72;6224350;27;98219;-70
2022/06/09 14:29:48;;;;;;;;;25.20;23.20;;;;;29.46;44.12;97996.97;6242673;27;98726;-70
2022/06/09 14:32:52;;;;;;;;;27.00;23.00;;;;;29.25;45.16;98002.88;6240542;27;96575;-70
2022/06/09 14:35:56;;;;;;;;;26.00;24.00;;;;;29.09;46.16;97989.06;6247384;27;97803;-72
2022/06/09 14:39:04;;;;;;;;;25.00;23.40;;;;;28.78;46.32;97975.31;6230737;27;97777;-69
2022/06/09 14:42:12;;;;;;;;;24.00;21.60;;;;;28.51;47.15;97954.06;6251441;27;97450;-72
2022/06/09 14:45:17;;;;;;;;;21.40;20.00;;;;;28.35;48.34;97935.50;6255808;27;96796;-69
2022/06/09 14:48:23;;;;;;;;;22.60;21.60;;;;;28.39;48.12;97935.59;6254386;27;96634;-70
2022/06/09 14:51:27;;;;;;;;;19.50;18.50;;;;;28.34;48.93;97952.50;6238862;27;97673;-69
2022/06/09 14:54:32;;;;;;;;;21.00;18.00;;;;;28.23;49.40;97963.34;6259327;27;97493;-69
2022/06/09 14:57:35;;;;;;;;;16.40;15.20;;;;;28.04;48.50;97979.06;6241797;27;97417;-72
2022/06/09 15:00:38;;;;;;;;;19.00;17.00;;;;;27.79;50.40;98001.41;6237568;27;97413;-69
2022/06/09 15:03:42;;;;;;;;;13.00;12.40;;;;;27.11;49.20;98026.38;6260105;27;97760;-69